sensor_id;sensor_type;location;lat;lon;timestamp;P1;durP1;ratioP1;P2;durP2;ratioP2
9838;SDS011;4958;48.150;11.506;2024-01-30T00:02:21;11.27;;;6.13;;
9838;SDS011;4958;48.150;11.506;2024-01-30T00:04:58;8.50;;;6.50;;
9838;SDS011;4958;48.150;11.506;2024-01-30T00:07:41;11.90;;;6.53;;
9838;SDS011;4958;48.150;11.506;2024-01-30T00:10:10;8.70;;;6.53;;
9838;SDS011;4958;48.150;11.506;2024-01-30T00:13:08;9.90;;;5.90;;
9838;SDS011;4958;48.150;11.506;2024-01-30T00:15:46;9.00;;;6.03;;
9838;SDS011;4958;48.150;11.506;2024-01-30T00:18:23;6.83;;;5.70;;
9838;SDS011;4958;48.150;11.506;2024-01-30T00:20:59;7.80;;;6.27;;
9838;SDS011;4958;48.150;11.506;2024-01-30T00:23:50;7.97;;;5.97;;
9838;SDS011;4958;48.150;11.506;2024-01-30T00:26:35;11.17;;;6.03;;
9838;SDS011;4958;48.150;11.506;2024-01-30T00:29:09;8.07;;;5.80;;
9838;SDS011;4958;48.150;11.506;2024-01-30T00:31:46;7.50;;;5.77;;
9838;SDS011;4958;48.150;11.506;2024-01-30T00:34:20;6.57;;;5.40;;
9838;SDS011;4958;48.150;11.506;2024-01-30T00:37:01;7.13;;;5.50;;
9838;SDS011;4958;48.150;11.506;2024-01-30T00:40:03;8.43;;;5.87;;
9838;SDS011;4958;48.150;11.506;2024-01-30T00:46:31;7.43;;;5.40;;
9838;SDS011;4958;48.150;11.506;2024-01-30T00:49:42;8.80;;;5.60;;
9838;SDS011;4958;48.150;11.506;2024-01-30T00:55:23;6.53;;;5.67;;
9838;SDS011;4958;48.150;11.506;2024-01-30T00:58:46;7.23;;;5.10;;
9838;SDS011;4958;48.150;11.506;2024-01-30T01:01:29;7.47;;;5.60;;
9838;SDS011;4958;48.150;11.506;2024-01-30T01:04:36;6.50;;;5.40;;
9838;SDS011;4958;48.150;11.506;2024-01-30T01:07:49;8.90;;;5.53;;
9838;SDS011;4958;48.150;11.506;2024-01-30T01:10:25;11.13;;;5.60;;
9838;SDS011;4958;48.150;11.506;2024-01-30T01:13:18;6.17;;;5.37;;
9838;SDS011;4958;48.150;11.506;2024-01-30T01:16:14;7.97;;;5.77;;
9838;SDS011;4958;48.150;11.506;2024-01-30T01:19:18;6.83;;;5.20;;
9838;SDS011;4958;48.150;11.506;2024-01-30T01:22:11;6.67;;;5.37;;
9838;SDS011;4958;48.150;11.506;2024-01-30T01:24:50;6.07;;;5.27;;
9838;SDS011;4958;48.150;11.506;2024-01-30T01:27:36;5.93;;;5.17;;
9838;SDS011;4958;48.150;11.506;2024-01-30T01:30:20;7.10;;;5.40;;
9838;SDS011;4958;48.150;11.506;2024-01-30T01:32:58;7.13;;;5.70;;
9838;SDS011;4958;48.150;11.506;2024-01-30T01:35:29;7.43;;;5.70;;
9838;SDS011;4958;48.150;11.506;2024-01-30T01:41:07;7.33;;;5.90;;
9838;SDS011;4958;48.150;11.506;2024-01-30T01:43:50;9.57;;;5.80;;
9838;SDS011;4958;48.150;11.506;2024-01-30T01:46:25;8.37;;;5.57;;
9838;SDS011;4958;48.150;11.506;2024-01-30T01:49:10;6.83;;;5.57;;
9838;SDS011;4958;48.150;11.506;2024-01-30T01:52:05;7.77;;;5.27;;
9838;SDS011;4958;48.150;11.506;2024-01-30T01:54:55;7.43;;;5.27;;
9838;SDS011;4958;48.150;11.506;2024-01-30T01:57:35;6.60;;;5.30;;
9838;SDS011;4958;48.150;11.506;2024-01-30T02:00:16;9.10;;;5.63;;
9838;SDS011;4958;48.150;11.506;2024-01-30T02:05:51;6.40;;;5.40;;
9838;SDS011;4958;48.150;11.506;2024-01-30T02:11:22;7.23;;;5.10;;
9838;SDS011;4958;48.150;11.506;2024-01-30T02:13:52;8.90;;;5.53;;
9838;SDS011;4958;48.150;11.506;2024-01-30T02:16:21;7.60;;;5.70;;
9838;SDS011;4958;48.150;11.506;2024-01-30T02:18:48;8.20;;;5.80;;
9838;SDS011;4958;48.150;11.506;2024-01-30T02:21:17;7.20;;;5.93;;
9838;SDS011;4958;48.150;11.506;2024-01-30T02:23:44;6.47;;;5.27;;
9838;SDS011;4958;48.150;11.506;2024-01-30T02:26:33;6.93;;;5.53;;
9838;SDS011;4958;48.150;11.506;2024-01-30T02:29:07;9.53;;;6.27;;
9838;SDS011;4958;48.150;11.506;2024-01-30T02:31:57;8.07;;;5.60;;
9838;SDS011;4958;48.150;11.506;2024-01-30T02:34:39;6.60;;;5.27;;
9838;SDS011;4958;48.150;11.506;2024-01-30T02:37:12;8.07;;;5.37;;
9838;SDS011;4958;48.150;11.506;2024-01-30T02:40:14;8.00;;;5.50;;
9838;SDS011;4958;48.150;11.506;2024-01-30T02:42:44;7.00;;;5.73;;
9838;SDS011;4958;48.150;11.506;2024-01-30T02:45:18;6.60;;;5.27;;
9838;SDS011;4958;48.150;11.506;2024-01-30T02:47:48;5.80;;;4.97;;
9838;SDS011;4958;48.150;11.506;2024-01-30T02:50:18;6.20;;;5.40;;
9838;SDS011;4958;48.150;11.506;2024-01-30T02:52:59;5.87;;;5.17;;
9838;SDS011;4958;48.150;11.506;2024-01-30T02:55:28;6.53;;;4.93;;
9838;SDS011;4958;48.150;11.506;2024-01-30T02:57:57;6.93;;;5.30;;
9838;SDS011;4958;48.150;11.506;2024-01-30T03:00:25;7.30;;;5.47;;
9838;SDS011;4958;48.150;11.506;2024-01-30T03:02:51;7.23;;;5.30;;
9838;SDS011;4958;48.150;11.506;2024-01-30T03:05:18;7.57;;;5.67;;
9838;SDS011;4958;48.150;11.506;2024-01-30T03:07:44;6.70;;;4.90;;
9838;SDS011;4958;48.150;11.506;2024-01-30T03:10:12;7.40;;;4.90;;
9838;SDS011;4958;48.150;11.506;2024-01-30T03:12:38;5.60;;;5.00;;
9838;SDS011;4958;48.150;11.506;2024-01-30T03:15:08;6.17;;;4.77;;
9838;SDS011;4958;48.150;11.506;2024-01-30T03:17:35;6.20;;;4.67;;
9838;SDS011;4958;48.150;11.506;2024-01-30T03:20:02;8.00;;;5.00;;
9838;SDS011;4958;48.150;11.506;2024-01-30T03:22:31;5.70;;;4.30;;
9838;SDS011;4958;48.150;11.506;2024-01-30T03:25:00;6.10;;;4.60;;
9838;SDS011;4958;48.150;11.506;2024-01-30T03:27:28;5.10;;;4.30;;
9838;SDS011;4958;48.150;11.506;2024-01-30T03:29:57;6.97;;;4.80;;
9838;SDS011;4958;48.150;11.506;2024-01-30T03:32:23;5.77;;;4.30;;
9838;SDS011;4958;48.150;11.506;2024-01-30T03:34:49;6.53;;;4.83;;
9838;SDS011;4958;48.150;11.506;2024-01-30T03:37:16;5.90;;;4.67;;
9838;SDS011;4958;48.150;11.506;2024-01-30T03:39:42;7.57;;;5.00;;
9838;SDS011;4958;48.150;11.506;2024-01-30T03:42:09;5.10;;;3.93;;
9838;SDS011;4958;48.150;11.506;2024-01-30T03:44:37;8.80;;;5.40;;
9838;SDS011;4958;48.150;11.506;2024-01-30T03:47:03;6.07;;;4.73;;
9838;SDS011;4958;48.150;11.506;2024-01-30T03:49:29;5.83;;;4.53;;
9838;SDS011;4958;48.150;11.506;2024-01-30T03:51:56;7.30;;;4.63;;
9838;SDS011;4958;48.150;11.506;2024-01-30T03:54:22;5.57;;;4.53;;
9838;SDS011;4958;48.150;11.506;2024-01-30T03:56:49;5.17;;;4.07;;
9838;SDS011;4958;48.150;11.506;2024-01-30T03:59:15;5.73;;;4.60;;
9838;SDS011;4958;48.150;11.506;2024-01-30T04:01:44;6.07;;;4.67;;
9838;SDS011;4958;48.150;11.506;2024-01-30T04:04:12;7.00;;;4.93;;
9838;SDS011;4958;48.150;11.506;2024-01-30T04:06:38;5.67;;;4.47;;
9838;SDS011;4958;48.150;11.506;2024-01-30T04:09:05;6.00;;;4.70;;
9838;SDS011;4958;48.150;11.506;2024-01-30T04:11:31;5.83;;;4.50;;
9838;SDS011;4958;48.150;11.506;2024-01-30T04:13:58;4.97;;;4.30;;
9838;SDS011;4958;48.150;11.506;2024-01-30T04:16:24;4.60;;;4.10;;
9838;SDS011;4958;48.150;11.506;2024-01-30T04:18:54;5.03;;;4.53;;
9838;SDS011;4958;48.150;11.506;2024-01-30T04:21:20;5.63;;;4.60;;
9838;SDS011;4958;48.150;11.506;2024-01-30T04:23:47;5.40;;;4.20;;
9838;SDS011;4958;48.150;11.506;2024-01-30T04:26:15;5.27;;;4.13;;
9838;SDS011;4958;48.150;11.506;2024-01-30T04:28:41;8.03;;;4.20;;
9838;SDS011;4958;48.150;11.506;2024-01-30T04:31:11;4.33;;;3.90;;
9838;SDS011;4958;48.150;11.506;2024-01-30T04:33:38;4.90;;;3.97;;
9838;SDS011;4958;48.150;11.506;2024-01-30T04:36:07;6.57;;;4.10;;
9838;SDS011;4958;48.150;11.506;2024-01-30T04:38:36;4.70;;;3.93;;
9838;SDS011;4958;48.150;11.506;2024-01-30T04:41:02;7.90;;;4.27;;
9838;SDS011;4958;48.150;11.506;2024-01-30T04:43:29;4.73;;;4.20;;
9838;SDS011;4958;48.150;11.506;2024-01-30T04:45:58;4.60;;;4.10;;
9838;SDS011;4958;48.150;11.506;2024-01-30T04:48:25;6.27;;;4.53;;
9838;SDS011;4958;48.150;11.506;2024-01-30T04:50:59;4.33;;;3.90;;
9838;SDS011;4958;48.150;11.506;2024-01-30T04:53:31;7.37;;;4.10;;
9838;SDS011;4958;48.150;11.506;2024-01-30T04:55:58;6.47;;;3.77;;
9838;SDS011;4958;48.150;11.506;2024-01-30T04:58:25;6.67;;;4.00;;
9838;SDS011;4958;48.150;11.506;2024-01-30T05:00:54;5.20;;;4.17;;
9838;SDS011;4958;48.150;11.506;2024-01-30T05:03:22;6.30;;;3.60;;
9838;SDS011;4958;48.150;11.506;2024-01-30T05:05:49;4.17;;;3.53;;
9838;SDS011;4958;48.150;11.506;2024-01-30T05:08:16;4.53;;;3.80;;
9838;SDS011;4958;48.150;11.506;2024-01-30T05:10:45;4.33;;;3.60;;
9838;SDS011;4958;48.150;11.506;2024-01-30T05:13:14;3.77;;;3.37;;
9838;SDS011;4958;48.150;11.506;2024-01-30T05:15:41;4.40;;;3.50;;
9838;SDS011;4958;48.150;11.506;2024-01-30T05:18:08;3.63;;;3.30;;
9838;SDS011;4958;48.150;11.506;2024-01-30T05:20:34;5.70;;;3.30;;
9838;SDS011;4958;48.150;11.506;2024-01-30T05:23:03;5.67;;;3.60;;
9838;SDS011;4958;48.150;11.506;2024-01-30T05:25:30;4.03;;;3.60;;
9838;SDS011;4958;48.150;11.506;2024-01-30T05:28:00;3.70;;;3.30;;
9838;SDS011;4958;48.150;11.506;2024-01-30T05:30:27;4.50;;;3.47;;
9838;SDS011;4958;48.150;11.506;2024-01-30T05:32:54;5.03;;;3.90;;
9838;SDS011;4958;48.150;11.506;2024-01-30T05:35:21;4.57;;;3.40;;
9838;SDS011;4958;48.150;11.506;2024-01-30T05:37:48;3.93;;;3.40;;
9838;SDS011;4958;48.150;11.506;2024-01-30T05:40:15;4.33;;;3.67;;
9838;SDS011;4958;48.150;11.506;2024-01-30T05:42:42;5.10;;;3.10;;
9838;SDS011;4958;48.150;11.506;2024-01-30T05:45:10;4.53;;;3.30;;
9838;SDS011;4958;48.150;11.506;2024-01-30T05:47:36;5.63;;;3.57;;
9838;SDS011;4958;48.150;11.506;2024-01-30T05:50:06;5.10;;;3.40;;
9838;SDS011;4958;48.150;11.506;2024-01-30T05:52:37;6.50;;;3.47;;
9838;SDS011;4958;48.150;11.506;2024-01-30T05:55:05;4.93;;;3.33;;
9838;SDS011;4958;48.150;11.506;2024-01-30T05:57:32;6.17;;;3.50;;
9838;SDS011;4958;48.150;11.506;2024-01-30T05:59:59;3.97;;;3.23;;
9838;SDS011;4958;48.150;11.506;2024-01-30T06:02:26;5.27;;;3.50;;
9838;SDS011;4958;48.150;11.506;2024-01-30T06:04:54;5.07;;;3.30;;
9838;SDS011;4958;48.150;11.506;2024-01-30T06:07:20;4.70;;;3.07;;
9838;SDS011;4958;48.150;11.506;2024-01-30T06:09:49;4.67;;;3.67;;
9838;SDS011;4958;48.150;11.506;2024-01-30T06:12:18;4.57;;;3.13;;
9838;SDS011;4958;48.150;11.506;2024-01-30T06:14:47;4.53;;;3.47;;
9838;SDS011;4958;48.150;11.506;2024-01-30T06:17:13;4.00;;;3.50;;
9838;SDS011;4958;48.150;11.506;2024-01-30T06:19:41;5.23;;;3.57;;
9838;SDS011;4958;48.150;11.506;2024-01-30T06:22:15;5.63;;;3.70;;
9838;SDS011;4958;48.150;11.506;2024-01-30T06:24:51;5.43;;;3.57;;
9838;SDS011;4958;48.150;11.506;2024-01-30T06:27:17;5.20;;;4.03;;
9838;SDS011;4958;48.150;11.506;2024-01-30T06:29:43;4.13;;;3.60;;
9838;SDS011;4958;48.150;11.506;2024-01-30T06:32:10;5.30;;;3.90;;
9838;SDS011;4958;48.150;11.506;2024-01-30T06:34:36;6.00;;;4.20;;
9838;SDS011;4958;48.150;11.506;2024-01-30T06:37:06;8.80;;;5.50;;
9838;SDS011;4958;48.150;11.506;2024-01-30T06:39:32;18.93;;;13.00;;
9838;SDS011;4958;48.150;11.506;2024-01-30T06:41:59;11.57;;;7.67;;
9838;SDS011;4958;48.150;11.506;2024-01-30T06:44:25;9.60;;;4.87;;
9838;SDS011;4958;48.150;11.506;2024-01-30T06:46:52;11.17;;;4.60;;
9838;SDS011;4958;48.150;11.506;2024-01-30T06:49:18;8.83;;;4.90;;
9838;SDS011;4958;48.150;11.506;2024-01-30T06:51:46;8.77;;;4.80;;
9838;SDS011;4958;48.150;11.506;2024-01-30T06:54:14;7.80;;;4.73;;
9838;SDS011;4958;48.150;11.506;2024-01-30T06:56:41;11.10;;;4.20;;
9838;SDS011;4958;48.150;11.506;2024-01-30T06:59:07;8.07;;;4.10;;
9838;SDS011;4958;48.150;11.506;2024-01-30T07:01:33;4.47;;;3.67;;
9838;SDS011;4958;48.150;11.506;2024-01-30T07:04:03;6.23;;;4.23;;
9838;SDS011;4958;48.150;11.506;2024-01-30T07:06:30;6.43;;;4.03;;
9838;SDS011;4958;48.150;11.506;2024-01-30T07:08:56;10.47;;;3.80;;
9838;SDS011;4958;48.150;11.506;2024-01-30T07:11:24;9.93;;;4.53;;
9838;SDS011;4958;48.150;11.506;2024-01-30T07:13:50;14.33;;;4.00;;
9838;SDS011;4958;48.150;11.506;2024-01-30T07:16:17;9.20;;;4.20;;
9838;SDS011;4958;48.150;11.506;2024-01-30T07:18:43;8.07;;;4.07;;
9838;SDS011;4958;48.150;11.506;2024-01-30T07:21:11;7.00;;;4.23;;
9838;SDS011;4958;48.150;11.506;2024-01-30T07:23:37;5.13;;;3.90;;
9838;SDS011;4958;48.150;11.506;2024-01-30T07:26:04;7.73;;;3.63;;
9838;SDS011;4958;48.150;11.506;2024-01-30T07:28:35;4.50;;;3.40;;
9838;SDS011;4958;48.150;11.506;2024-01-30T07:31:02;9.60;;;3.80;;
9838;SDS011;4958;48.150;11.506;2024-01-30T07:33:30;5.83;;;3.13;;
9838;SDS011;4958;48.150;11.506;2024-01-30T07:35:56;6.10;;;3.53;;
9838;SDS011;4958;48.150;11.506;2024-01-30T07:38:22;8.30;;;4.10;;
9838;SDS011;4958;48.150;11.506;2024-01-30T07:40:50;6.17;;;3.27;;
9838;SDS011;4958;48.150;11.506;2024-01-30T07:43:17;3.93;;;2.80;;
9838;SDS011;4958;48.150;11.506;2024-01-30T07:45:49;6.57;;;3.40;;
9838;SDS011;4958;48.150;11.506;2024-01-30T07:48:20;5.20;;;3.27;;
9838;SDS011;4958;48.150;11.506;2024-01-30T07:50:59;5.47;;;3.00;;
9838;SDS011;4958;48.150;11.506;2024-01-30T07:53:34;3.97;;;2.80;;
9838;SDS011;4958;48.150;11.506;2024-01-30T07:56:05;3.87;;;2.90;;
9838;SDS011;4958;48.150;11.506;2024-01-30T07:58:36;4.23;;;3.30;;
9838;SDS011;4958;48.150;11.506;2024-01-30T08:01:16;6.93;;;2.93;;
9838;SDS011;4958;48.150;11.506;2024-01-30T08:03:49;4.37;;;2.73;;
9838;SDS011;4958;48.150;11.506;2024-01-30T08:06:18;8.13;;;3.63;;
9838;SDS011;4958;48.150;11.506;2024-01-30T08:08:55;7.13;;;3.03;;
9838;SDS011;4958;48.150;11.506;2024-01-30T08:11:22;5.50;;;3.93;;
9838;SDS011;4958;48.150;11.506;2024-01-30T08:13:53;6.90;;;4.10;;
9838;SDS011;4958;48.150;11.506;2024-01-30T08:16:44;10.97;;;4.90;;
9838;SDS011;4958;48.150;11.506;2024-01-30T08:19:20;7.50;;;4.30;;
9838;SDS011;4958;48.150;11.506;2024-01-30T08:21:53;8.97;;;3.70;;
9838;SDS011;4958;48.150;11.506;2024-01-30T08:24:20;7.90;;;3.60;;
9838;SDS011;4958;48.150;11.506;2024-01-30T08:26:47;9.93;;;4.00;;
9838;SDS011;4958;48.150;11.506;2024-01-30T08:29:14;6.57;;;4.10;;
9838;SDS011;4958;48.150;11.506;2024-01-30T08:31:41;6.33;;;3.00;;
9838;SDS011;4958;48.150;11.506;2024-01-30T08:34:08;7.73;;;3.80;;
9838;SDS011;4958;48.150;11.506;2024-01-30T08:36:35;9.17;;;3.70;;
9838;SDS011;4958;48.150;11.506;2024-01-30T08:39:02;6.13;;;3.40;;
9838;SDS011;4958;48.150;11.506;2024-01-30T08:41:30;7.00;;;3.40;;
9838;SDS011;4958;48.150;11.506;2024-01-30T08:43:56;7.97;;;3.67;;
9838;SDS011;4958;48.150;11.506;2024-01-30T08:46:23;9.07;;;4.00;;
9838;SDS011;4958;48.150;11.506;2024-01-30T08:48:49;8.03;;;3.47;;
9838;SDS011;4958;48.150;11.506;2024-01-30T08:51:17;6.77;;;3.30;;
9838;SDS011;4958;48.150;11.506;2024-01-30T08:53:50;4.73;;;3.23;;
9838;SDS011;4958;48.150;11.506;2024-01-30T08:56:21;5.67;;;3.40;;
9838;SDS011;4958;48.150;11.506;2024-01-30T08:58:48;6.97;;;3.30;;
9838;SDS011;4958;48.150;11.506;2024-01-30T09:01:16;5.77;;;3.10;;
9838;SDS011;4958;48.150;11.506;2024-01-30T09:03:42;6.73;;;3.50;;
9838;SDS011;4958;48.150;11.506;2024-01-30T09:06:11;6.53;;;3.30;;
9838;SDS011;4958;48.150;11.506;2024-01-30T09:08:39;6.23;;;3.17;;
9838;SDS011;4958;48.150;11.506;2024-01-30T09:11:08;6.90;;;3.40;;
9838;SDS011;4958;48.150;11.506;2024-01-30T09:13:35;8.47;;;3.60;;
9838;SDS011;4958;48.150;11.506;2024-01-30T09:16:01;6.30;;;3.60;;
9838;SDS011;4958;48.150;11.506;2024-01-30T09:18:28;7.40;;;3.10;;
9838;SDS011;4958;48.150;11.506;2024-01-30T09:20:54;5.37;;;3.00;;
9838;SDS011;4958;48.150;11.506;2024-01-30T09:23:20;5.60;;;3.30;;
9838;SDS011;4958;48.150;11.506;2024-01-30T09:25:48;8.00;;;3.30;;
9838;SDS011;4958;48.150;11.506;2024-01-30T09:28:15;4.97;;;2.77;;
9838;SDS011;4958;48.150;11.506;2024-01-30T09:30:42;4.43;;;2.90;;
9838;SDS011;4958;48.150;11.506;2024-01-30T09:33:08;5.43;;;2.83;;
9838;SDS011;4958;48.150;11.506;2024-01-30T09:35:40;7.40;;;2.77;;
9838;SDS011;4958;48.150;11.506;2024-01-30T09:38:06;4.20;;;2.83;;
9838;SDS011;4958;48.150;11.506;2024-01-30T09:40:33;7.77;;;2.87;;
9838;SDS011;4958;48.150;11.506;2024-01-30T09:43:01;5.00;;;2.80;;
9838;SDS011;4958;48.150;11.506;2024-01-30T09:45:27;5.20;;;2.83;;
9838;SDS011;4958;48.150;11.506;2024-01-30T09:47:54;6.33;;;2.60;;
9838;SDS011;4958;48.150;11.506;2024-01-30T09:50:23;5.33;;;2.43;;
9838;SDS011;4958;48.150;11.506;2024-01-30T09:52:49;4.90;;;2.13;;
9838;SDS011;4958;48.150;11.506;2024-01-30T09:55:17;2.77;;;2.23;;
9838;SDS011;4958;48.150;11.506;2024-01-30T10:00:24;7.00;;;2.70;;
9838;SDS011;4958;48.150;11.506;2024-01-30T10:03:02;6.43;;;2.70;;
9838;SDS011;4958;48.150;11.506;2024-01-30T10:08:56;2.88;;;1.90;;
9838;SDS011;4958;48.150;11.506;2024-01-30T10:09:41;4.40;;;2.20;;
9838;SDS011;4958;48.150;11.506;2024-01-30T10:14:37;3.93;;;2.20;;
9838;SDS011;4958;48.150;11.506;2024-01-30T10:19:13;5.00;;;2.50;;
9838;SDS011;4958;48.150;11.506;2024-01-30T10:21:40;3.00;;;2.70;;
9838;SDS011;4958;48.150;11.506;2024-01-30T10:24:06;7.50;;;2.63;;
9838;SDS011;4958;48.150;11.506;2024-01-30T10:26:33;3.55;;;2.50;;
9838;SDS011;4958;48.150;11.506;2024-01-30T10:29:04;4.38;;;2.65;;
9838;SDS011;4958;48.150;11.506;2024-01-30T10:31:30;5.97;;;3.20;;
9838;SDS011;4958;48.150;11.506;2024-01-30T10:33:57;6.65;;;3.20;;
9838;SDS011;4958;48.150;11.506;2024-01-30T10:36:27;5.47;;;2.78;;
9838;SDS011;4958;48.150;11.506;2024-01-30T10:38:55;2.58;;;1.98;;
9838;SDS011;4958;48.150;11.506;2024-01-30T10:41:26;6.60;;;2.17;;
9838;SDS011;4958;48.150;11.506;2024-01-30T10:43:55;6.85;;;2.42;;
9838;SDS011;4958;48.150;11.506;2024-01-30T10:46:29;4.63;;;2.15;;
9838;SDS011;4958;48.150;11.506;2024-01-30T10:48:58;4.40;;;1.90;;
9838;SDS011;4958;48.150;11.506;2024-01-30T10:51:26;6.47;;;2.17;;
9838;SDS011;4958;48.150;11.506;2024-01-30T10:53:53;2.72;;;1.85;;
9838;SDS011;4958;48.150;11.506;2024-01-30T10:56:21;2.33;;;1.90;;
9838;SDS011;4958;48.150;11.506;2024-01-30T10:58:49;3.40;;;2.03;;
9838;SDS011;4958;48.150;11.506;2024-01-30T11:01:17;3.25;;;2.08;;
9838;SDS011;4958;48.150;11.506;2024-01-30T11:03:44;3.80;;;1.90;;
9838;SDS011;4958;48.150;11.506;2024-01-30T11:06:24;1.98;;;1.73;;
9838;SDS011;4958;48.150;11.506;2024-01-30T11:09:00;2.35;;;1.65;;
9838;SDS011;4958;48.150;11.506;2024-01-30T11:11:46;2.78;;;1.60;;
9838;SDS011;4958;48.150;11.506;2024-01-30T11:14:16;6.13;;;2.03;;
9838;SDS011;4958;48.150;11.506;2024-01-30T11:16:42;3.78;;;1.73;;
9838;SDS011;4958;48.150;11.506;2024-01-30T11:19:12;3.38;;;1.98;;
9838;SDS011;4958;48.150;11.506;2024-01-30T11:21:42;5.72;;;2.35;;
9838;SDS011;4958;48.150;11.506;2024-01-30T11:24:08;3.63;;;2.33;;
9838;SDS011;4958;48.150;11.506;2024-01-30T11:26:35;4.65;;;2.58;;
9838;SDS011;4958;48.150;11.506;2024-01-30T11:29:02;4.35;;;2.55;;
9838;SDS011;4958;48.150;11.506;2024-01-30T11:31:29;4.82;;;2.13;;
9838;SDS011;4958;48.150;11.506;2024-01-30T11:33:56;14.73;;;2.75;;
9838;SDS011;4958;48.150;11.506;2024-01-30T11:36:25;6.28;;;2.70;;
9838;SDS011;4958;48.150;11.506;2024-01-30T11:38:53;5.75;;;2.83;;
9838;SDS011;4958;48.150;11.506;2024-01-30T11:41:20;6.90;;;2.70;;
9838;SDS011;4958;48.150;11.506;2024-01-30T11:43:53;4.57;;;2.25;;
9838;SDS011;4958;48.150;11.506;2024-01-30T11:46:19;5.40;;;2.40;;
9838;SDS011;4958;48.150;11.506;2024-01-30T11:48:45;5.53;;;2.00;;
9838;SDS011;4958;48.150;11.506;2024-01-30T11:51:15;5.18;;;2.25;;
9838;SDS011;4958;48.150;11.506;2024-01-30T11:53:44;5.65;;;2.45;;
9838;SDS011;4958;48.150;11.506;2024-01-30T11:56:18;4.30;;;2.67;;
9838;SDS011;4958;48.150;11.506;2024-01-30T11:58:44;5.25;;;3.58;;
9838;SDS011;4958;48.150;11.506;2024-01-30T12:01:11;4.90;;;2.80;;
9838;SDS011;4958;48.150;11.506;2024-01-30T12:03:37;3.42;;;2.03;;
9838;SDS011;4958;48.150;11.506;2024-01-30T12:06:04;3.22;;;1.98;;
9838;SDS011;4958;48.150;11.506;2024-01-30T12:08:31;5.30;;;2.05;;
9838;SDS011;4958;48.150;11.506;2024-01-30T12:10:58;4.32;;;2.35;;
9838;SDS011;4958;48.150;11.506;2024-01-30T12:13:27;4.03;;;1.80;;
9838;SDS011;4958;48.150;11.506;2024-01-30T12:15:57;1.95;;;1.77;;
9838;SDS011;4958;48.150;11.506;2024-01-30T12:18:24;2.92;;;2.00;;
9838;SDS011;4958;48.150;11.506;2024-01-30T12:20:57;2.60;;;1.92;;
9838;SDS011;4958;48.150;11.506;2024-01-30T12:23:24;2.63;;;1.98;;
9838;SDS011;4958;48.150;11.506;2024-01-30T12:25:52;3.95;;;1.95;;
9838;SDS011;4958;48.150;11.506;2024-01-30T12:28:19;4.00;;;2.00;;
9838;SDS011;4958;48.150;11.506;2024-01-30T12:30:46;4.00;;;2.00;;
9838;SDS011;4958;48.150;11.506;2024-01-30T12:33:15;3.15;;;1.88;;
9838;SDS011;4958;48.150;11.506;2024-01-30T12:35:45;3.55;;;1.60;;
9838;SDS011;4958;48.150;11.506;2024-01-30T12:38:12;3.42;;;1.80;;
9838;SDS011;4958;48.150;11.506;2024-01-30T12:40:39;3.17;;;1.77;;
9838;SDS011;4958;48.150;11.506;2024-01-30T12:43:05;5.32;;;1.75;;
9838;SDS011;4958;48.150;11.506;2024-01-30T12:45:33;2.25;;;1.70;;
9838;SDS011;4958;48.150;11.506;2024-01-30T12:48:00;3.58;;;1.98;;
9838;SDS011;4958;48.150;11.506;2024-01-30T12:50:29;3.47;;;1.70;;
9838;SDS011;4958;48.150;11.506;2024-01-30T12:52:56;3.92;;;1.63;;
9838;SDS011;4958;48.150;11.506;2024-01-30T12:55:23;2.58;;;1.77;;
9838;SDS011;4958;48.150;11.506;2024-01-30T12:57:51;5.05;;;1.88;;
9838;SDS011;4958;48.150;11.506;2024-01-30T13:00:18;4.40;;;2.00;;
9838;SDS011;4958;48.150;11.506;2024-01-30T13:02:45;2.97;;;1.85;;
9838;SDS011;4958;48.150;11.506;2024-01-30T13:05:15;3.40;;;1.88;;
9838;SDS011;4958;48.150;11.506;2024-01-30T13:07:42;4.78;;;1.85;;
9838;SDS011;4958;48.150;11.506;2024-01-30T13:10:09;3.85;;;1.70;;
9838;SDS011;4958;48.150;11.506;2024-01-30T13:12:35;1.83;;;1.50;;
9838;SDS011;4958;48.150;11.506;2024-01-30T13:15:05;4.10;;;1.50;;
9838;SDS011;4958;48.150;11.506;2024-01-30T13:17:32;3.05;;;1.80;;
9838;SDS011;4958;48.150;11.506;2024-01-30T13:19:59;2.13;;;1.45;;
9838;SDS011;4958;48.150;11.506;2024-01-30T13:22:27;2.28;;;1.50;;
9838;SDS011;4958;48.150;11.506;2024-01-30T13:24:53;3.13;;;1.50;;
9838;SDS011;4958;48.150;11.506;2024-01-30T13:27:20;4.28;;;1.90;;
9838;SDS011;4958;48.150;11.506;2024-01-30T13:29:46;3.78;;;1.77;;
9838;SDS011;4958;48.150;11.506;2024-01-30T13:32:13;5.28;;;1.65;;
9838;SDS011;4958;48.150;11.506;2024-01-30T13:34:39;5.60;;;1.65;;
9838;SDS011;4958;48.150;11.506;2024-01-30T13:37:06;3.10;;;1.80;;
9838;SDS011;4958;48.150;11.506;2024-01-30T13:39:34;3.78;;;1.75;;
9838;SDS011;4958;48.150;11.506;2024-01-30T13:42:04;4.40;;;1.58;;
9838;SDS011;4958;48.150;11.506;2024-01-30T13:44:33;2.33;;;1.73;;
9838;SDS011;4958;48.150;11.506;2024-01-30T13:47:00;3.85;;;1.80;;
9838;SDS011;4958;48.150;11.506;2024-01-30T13:49:30;3.15;;;1.40;;
9838;SDS011;4958;48.150;11.506;2024-01-30T13:51:56;6.80;;;1.73;;
9838;SDS011;4958;48.150;11.506;2024-01-30T13:54:23;3.30;;;1.63;;
9838;SDS011;4958;48.150;11.506;2024-01-30T13:56:51;6.43;;;2.25;;
9838;SDS011;4958;48.150;11.506;2024-01-30T13:59:18;3.17;;;1.88;;
9838;SDS011;4958;48.150;11.506;2024-01-30T14:01:48;4.50;;;1.90;;
9838;SDS011;4958;48.150;11.506;2024-01-30T14:04:15;5.18;;;1.67;;
9838;SDS011;4958;48.150;11.506;2024-01-30T14:06:41;2.88;;;1.70;;
9838;SDS011;4958;48.150;11.506;2024-01-30T14:09:07;4.07;;;1.67;;
9838;SDS011;4958;48.150;11.506;2024-01-30T14:11:38;3.42;;;1.85;;
9838;SDS011;4958;48.150;11.506;2024-01-30T14:14:06;5.07;;;2.20;;
9838;SDS011;4958;48.150;11.506;2024-01-30T14:16:32;5.97;;;2.13;;
9838;SDS011;4958;48.150;11.506;2024-01-30T14:18:58;4.20;;;1.92;;
9838;SDS011;4958;48.150;11.506;2024-01-30T14:21:25;3.13;;;2.08;;
9838;SDS011;4958;48.150;11.506;2024-01-30T14:23:51;2.85;;;1.98;;
9838;SDS011;4958;48.150;11.506;2024-01-30T14:26:18;6.10;;;2.05;;
9838;SDS011;4958;48.150;11.506;2024-01-30T14:28:44;3.92;;;1.95;;
9838;SDS011;4958;48.150;11.506;2024-01-30T14:31:15;2.25;;;1.90;;
9838;SDS011;4958;48.150;11.506;2024-01-30T14:33:43;2.53;;;1.95;;
9838;SDS011;4958;48.150;11.506;2024-01-30T14:36:10;4.45;;;1.85;;
9838;SDS011;4958;48.150;11.506;2024-01-30T14:38:37;2.53;;;2.25;;
9838;SDS011;4958;48.150;11.506;2024-01-30T14:41:05;2.50;;;1.95;;
9838;SDS011;4958;48.150;11.506;2024-01-30T14:43:34;2.72;;;2.00;;
9838;SDS011;4958;48.150;11.506;2024-01-30T14:46:02;2.38;;;1.98;;
9838;SDS011;4958;48.150;11.506;2024-01-30T14:48:32;5.78;;;2.08;;
9838;SDS011;4958;48.150;11.506;2024-01-30T14:50:59;4.55;;;2.30;;
9838;SDS011;4958;48.150;11.506;2024-01-30T14:53:28;6.55;;;2.30;;
9838;SDS011;4958;48.150;11.506;2024-01-30T14:55:54;7.05;;;2.38;;
9838;SDS011;4958;48.150;11.506;2024-01-30T14:58:20;4.60;;;2.00;;
9838;SDS011;4958;48.150;11.506;2024-01-30T15:00:50;5.82;;;2.65;;
9838;SDS011;4958;48.150;11.506;2024-01-30T15:03:16;4.35;;;2.40;;
9838;SDS011;4958;48.150;11.506;2024-01-30T15:05:44;6.88;;;2.80;;
9838;SDS011;4958;48.150;11.506;2024-01-30T15:08:10;6.32;;;2.50;;
9838;SDS011;4958;48.150;11.506;2024-01-30T15:10:37;4.28;;;2.58;;
9838;SDS011;4958;48.150;11.506;2024-01-30T15:13:03;5.65;;;2.40;;
9838;SDS011;4958;48.150;11.506;2024-01-30T15:15:30;5.00;;;2.47;;
9838;SDS011;4958;48.150;11.506;2024-01-30T15:17:56;11.30;;;2.63;;
9838;SDS011;4958;48.150;11.506;2024-01-30T15:20:23;5.55;;;2.70;;
9838;SDS011;4958;48.150;11.506;2024-01-30T15:22:51;7.83;;;2.50;;
9838;SDS011;4958;48.150;11.506;2024-01-30T15:25:19;9.10;;;2.73;;
9838;SDS011;4958;48.150;11.506;2024-01-30T15:27:45;7.22;;;2.95;;
9838;SDS011;4958;48.150;11.506;2024-01-30T15:30:12;10.13;;;2.90;;
9838;SDS011;4958;48.150;11.506;2024-01-30T15:32:40;6.50;;;2.80;;
9838;SDS011;4958;48.150;11.506;2024-01-30T15:35:06;5.63;;;2.97;;
9838;SDS011;4958;48.150;11.506;2024-01-30T15:37:33;9.77;;;2.87;;
9838;SDS011;4958;48.150;11.506;2024-01-30T15:40:01;7.60;;;3.00;;
9838;SDS011;4958;48.150;11.506;2024-01-30T15:42:31;8.80;;;2.93;;
9838;SDS011;4958;48.150;11.506;2024-01-30T15:44:59;7.50;;;3.10;;